sensor_id;sensor_type;location;lat;lon;timestamp;P1;durP1;ratioP1;P2;durP2;ratioP2
27412;SDS011;14871;52.702;5.230;2023-08-12T00:01:31;8.93;;;3.90;;
27412;SDS011;14871;52.702;5.230;2023-08-12T00:03:57;8.60;;;4.45;;
27412;SDS011;14871;52.702;5.230;2023-08-12T00:06:22;6.97;;;4.70;;
27412;SDS011;14871;52.702;5.230;2023-08-12T00:08:48;8.98;;;5.00;;
27412;SDS011;14871;52.702;5.230;2023-08-12T00:11:13;9.43;;;4.65;;
27412;SDS011;14871;52.702;5.230;2023-08-12T00:13:39;6.80;;;3.97;;
27412;SDS011;14871;52.702;5.230;2023-08-12T00:16:05;7.53;;;4.63;;
27412;SDS011;14871;52.702;5.230;2023-08-12T00:18:31;10.23;;;4.63;;
27412;SDS011;14871;52.702;5.230;2023-08-12T00:21:03;7.35;;;4.38;;
27412;SDS011;14871;52.702;5.230;2023-08-12T00:23:31;10.40;;;4.20;;
27412;SDS011;14871;52.702;5.230;2023-08-12T00:25:57;9.07;;;4.40;;
27412;SDS011;14871;52.702;5.230;2023-08-12T00:28:23;9.57;;;4.60;;
27412;SDS011;14871;52.702;5.230;2023-08-12T00:30:49;8.57;;;4.30;;
27412;SDS011;14871;52.702;5.230;2023-08-12T00:33:15;7.68;;;4.50;;
27412;SDS011;14871;52.702;5.230;2023-08-12T00:35:40;8.70;;;4.78;;
27412;SDS011;14871;52.702;5.230;2023-08-12T00:38:06;7.93;;;5.05;;
27412;SDS011;14871;52.702;5.230;2023-08-12T00:40:31;7.22;;;4.90;;
27412;SDS011;14871;52.702;5.230;2023-08-12T00:42:57;9.65;;;5.32;;
27412;SDS011;14871;52.702;5.230;2023-08-12T00:45:22;12.10;;;5.68;;
27412;SDS011;14871;52.702;5.230;2023-08-12T00:47:48;9.10;;;5.25;;
27412;SDS011;14871;52.702;5.230;2023-08-12T00:50:14;7.53;;;5.30;;
27412;SDS011;14871;52.702;5.230;2023-08-12T00:52:40;10.20;;;5.47;;
27412;SDS011;14871;52.702;5.230;2023-08-12T00:55:07;11.05;;;4.85;;
27412;SDS011;14871;52.702;5.230;2023-08-12T00:57:33;10.88;;;5.43;;
27412;SDS011;14871;52.702;5.230;2023-08-12T00:59:58;9.43;;;5.85;;
27412;SDS011;14871;52.702;5.230;2023-08-12T01:02:24;12.52;;;5.60;;
27412;SDS011;14871;52.702;5.230;2023-08-12T01:04:50;9.45;;;5.80;;
27412;SDS011;14871;52.702;5.230;2023-08-12T01:07:16;11.73;;;5.75;;
27412;SDS011;14871;52.702;5.230;2023-08-12T01:09:41;10.60;;;5.97;;
27412;SDS011;14871;52.702;5.230;2023-08-12T01:12:12;14.68;;;7.30;;
27412;SDS011;14871;52.702;5.230;2023-08-12T01:17:30;14.40;;;5.25;;
27412;SDS011;14871;52.702;5.230;2023-08-12T01:19:57;10.48;;;5.65;;
27412;SDS011;14871;52.702;5.230;2023-08-12T01:22:24;14.15;;;6.28;;
27412;SDS011;14871;52.702;5.230;2023-08-12T01:24:52;12.40;;;6.65;;
27412;SDS011;14871;52.702;5.230;2023-08-12T01:27:18;13.60;;;5.78;;
27412;SDS011;14871;52.702;5.230;2023-08-12T01:29:45;13.48;;;6.35;;
27412;SDS011;14871;52.702;5.230;2023-08-12T01:32:16;11.35;;;5.78;;
27412;SDS011;14871;52.702;5.230;2023-08-12T01:34:51;11.07;;;6.43;;
27412;SDS011;14871;52.702;5.230;2023-08-12T01:37:23;15.68;;;6.88;;
27412;SDS011;14871;52.702;5.230;2023-08-12T01:39:52;8.90;;;6.20;;
27412;SDS011;14871;52.702;5.230;2023-08-12T01:42:19;11.77;;;6.40;;
27412;SDS011;14871;52.702;5.230;2023-08-12T01:44:45;11.95;;;6.10;;
27412;SDS011;14871;52.702;5.230;2023-08-12T01:47:13;11.95;;;7.63;;
27412;SDS011;14871;52.702;5.230;2023-08-12T01:49:38;14.30;;;6.97;;
27412;SDS011;14871;52.702;5.230;2023-08-12T01:52:04;10.45;;;7.20;;
27412;SDS011;14871;52.702;5.230;2023-08-12T01:54:30;11.63;;;6.78;;
27412;SDS011;14871;52.702;5.230;2023-08-12T01:57:00;13.38;;;6.68;;
27412;SDS011;14871;52.702;5.230;2023-08-12T01:59:27;13.82;;;7.28;;
27412;SDS011;14871;52.702;5.230;2023-08-12T02:01:52;11.18;;;7.28;;
27412;SDS011;14871;52.702;5.230;2023-08-12T02:04:18;13.10;;;7.28;;
27412;SDS011;14871;52.702;5.230;2023-08-12T02:06:43;12.38;;;6.88;;
27412;SDS011;14871;52.702;5.230;2023-08-12T02:09:09;11.18;;;7.10;;
27412;SDS011;14871;52.702;5.230;2023-08-12T02:11:34;10.32;;;5.80;;
27412;SDS011;14871;52.702;5.230;2023-08-12T02:14:00;12.35;;;6.40;;
27412;SDS011;14871;52.702;5.230;2023-08-12T02:16:25;9.70;;;6.50;;
27412;SDS011;14871;52.702;5.230;2023-08-12T02:18:51;12.50;;;6.05;;
27412;SDS011;14871;52.702;5.230;2023-08-12T02:21:17;13.45;;;6.18;;
27412;SDS011;14871;52.702;5.230;2023-08-12T02:23:42;9.38;;;5.57;;
27412;SDS011;14871;52.702;5.230;2023-08-12T02:26:09;13.63;;;7.38;;
27412;SDS011;14871;52.702;5.230;2023-08-12T02:28:35;12.35;;;6.55;;
27412;SDS011;14871;52.702;5.230;2023-08-12T02:31:00;9.13;;;5.95;;
27412;SDS011;14871;52.702;5.230;2023-08-12T02:33:26;10.48;;;6.25;;
27412;SDS011;14871;52.702;5.230;2023-08-12T02:35:52;10.02;;;6.03;;
27412;SDS011;14871;52.702;5.230;2023-08-12T02:38:19;9.88;;;5.75;;
27412;SDS011;14871;52.702;5.230;2023-08-12T02:40:49;13.10;;;6.50;;
27412;SDS011;14871;52.702;5.230;2023-08-12T02:43:15;13.77;;;7.30;;
27412;SDS011;14871;52.702;5.230;2023-08-12T02:45:41;9.95;;;6.05;;
27412;SDS011;14871;52.702;5.230;2023-08-12T02:48:07;14.80;;;7.28;;
27412;SDS011;14871;52.702;5.230;2023-08-12T02:50:34;12.82;;;6.85;;
27412;SDS011;14871;52.702;5.230;2023-08-12T02:53:00;11.95;;;6.15;;
27412;SDS011;14871;52.702;5.230;2023-08-12T02:55:25;15.00;;;8.20;;
27412;SDS011;14871;52.702;5.230;2023-08-12T02:57:51;10.68;;;7.00;;
27412;SDS011;14871;52.702;5.230;2023-08-12T03:00:17;14.63;;;8.00;;
27412;SDS011;14871;52.702;5.230;2023-08-12T03:02:42;13.73;;;7.63;;
27412;SDS011;14871;52.702;5.230;2023-08-12T03:05:08;18.10;;;8.15;;
27412;SDS011;14871;52.702;5.230;2023-08-12T03:07:34;11.00;;;7.43;;
27412;SDS011;14871;52.702;5.230;2023-08-12T03:10:00;14.15;;;8.38;;
27412;SDS011;14871;52.702;5.230;2023-08-12T03:12:25;15.15;;;8.68;;
27412;SDS011;14871;52.702;5.230;2023-08-12T03:14:51;17.23;;;10.10;;
27412;SDS011;14871;52.702;5.230;2023-08-12T03:17:16;19.02;;;8.98;;
27412;SDS011;14871;52.702;5.230;2023-08-12T03:19:42;16.90;;;8.52;;
27412;SDS011;14871;52.702;5.230;2023-08-12T03:22:08;15.60;;;9.07;;
27412;SDS011;14871;52.702;5.230;2023-08-12T03:24:33;18.63;;;10.18;;
27412;SDS011;14871;52.702;5.230;2023-08-12T03:26:59;16.92;;;9.43;;
27412;SDS011;14871;52.702;5.230;2023-08-12T03:29:25;15.52;;;10.48;;
27412;SDS011;14871;52.702;5.230;2023-08-12T03:31:50;21.77;;;10.52;;
27412;SDS011;14871;52.702;5.230;2023-08-12T03:34:16;16.95;;;10.13;;
27412;SDS011;14871;52.702;5.230;2023-08-12T03:36:42;13.63;;;10.07;;
27412;SDS011;14871;52.702;5.230;2023-08-12T03:39:07;19.13;;;10.23;;
27412;SDS011;14871;52.702;5.230;2023-08-12T03:41:33;19.35;;;10.45;;
27412;SDS011;14871;52.702;5.230;2023-08-12T03:43:58;20.80;;;10.90;;
27412;SDS011;14871;52.702;5.230;2023-08-12T03:46:24;17.00;;;10.98;;
27412;SDS011;14871;52.702;5.230;2023-08-12T03:48:50;17.75;;;10.57;;
27412;SDS011;14871;52.702;5.230;2023-08-12T03:51:16;19.15;;;11.48;;
27412;SDS011;14871;52.702;5.230;2023-08-12T03:53:41;21.33;;;10.70;;
27412;SDS011;14871;52.702;5.230;2023-08-12T03:56:07;18.50;;;10.43;;
27412;SDS011;14871;52.702;5.230;2023-08-12T03:58:32;20.38;;;11.35;;
27412;SDS011;14871;52.702;5.230;2023-08-12T04:00:58;17.95;;;10.80;;
27412;SDS011;14871;52.702;5.230;2023-08-12T04:03:24;20.55;;;11.20;;
27412;SDS011;14871;52.702;5.230;2023-08-12T04:05:50;19.08;;;10.82;;
27412;SDS011;14871;52.702;5.230;2023-08-12T04:08:18;19.40;;;11.63;;
27412;SDS011;14871;52.702;5.230;2023-08-12T04:10:45;20.83;;;11.38;;
27412;SDS011;14871;52.702;5.230;2023-08-12T04:13:12;17.63;;;11.52;;
27412;SDS011;14871;52.702;5.230;2023-08-12T04:15:38;22.15;;;13.00;;
27412;SDS011;14871;52.702;5.230;2023-08-12T04:18:04;23.20;;;11.82;;
27412;SDS011;14871;52.702;5.230;2023-08-12T04:20:30;21.90;;;11.57;;
27412;SDS011;14871;52.702;5.230;2023-08-12T04:22:55;18.20;;;11.98;;
27412;SDS011;14871;52.702;5.230;2023-08-12T04:25:21;18.75;;;11.73;;
27412;SDS011;14871;52.702;5.230;2023-08-12T04:27:47;20.48;;;12.48;;
27412;SDS011;14871;52.702;5.230;2023-08-12T04:30:14;23.65;;;11.82;;
27412;SDS011;14871;52.702;5.230;2023-08-12T04:32:43;19.23;;;11.90;;
27412;SDS011;14871;52.702;5.230;2023-08-12T04:35:08;23.20;;;12.45;;
27412;SDS011;14871;52.702;5.230;2023-08-12T04:37:35;21.25;;;12.45;;
27412;SDS011;14871;52.702;5.230;2023-08-12T04:40:01;24.77;;;13.07;;
27412;SDS011;14871;52.702;5.230;2023-08-12T04:42:28;20.63;;;12.85;;
27412;SDS011;14871;52.702;5.230;2023-08-12T04:44:54;23.70;;;13.43;;
27412;SDS011;14871;52.702;5.230;2023-08-12T04:47:19;23.05;;;13.50;;
27412;SDS011;14871;52.702;5.230;2023-08-12T04:49:45;26.92;;;14.20;;
27412;SDS011;14871;52.702;5.230;2023-08-12T04:52:11;27.52;;;14.52;;
27412;SDS011;14871;52.702;5.230;2023-08-12T04:54:36;29.38;;;15.45;;
27412;SDS011;14871;52.702;5.230;2023-08-12T04:57:02;27.85;;;15.70;;
27412;SDS011;14871;52.702;5.230;2023-08-12T04:59:27;25.10;;;15.60;;
27412;SDS011;14871;52.702;5.230;2023-08-12T05:01:53;26.50;;;15.73;;
27412;SDS011;14871;52.702;5.230;2023-08-12T05:04:19;26.83;;;15.85;;
27412;SDS011;14871;52.702;5.230;2023-08-12T05:06:44;24.33;;;15.10;;
27412;SDS011;14871;52.702;5.230;2023-08-12T05:09:10;26.00;;;16.02;;
27412;SDS011;14871;52.702;5.230;2023-08-12T05:11:36;27.98;;;15.93;;
27412;SDS011;14871;52.702;5.230;2023-08-12T05:14:01;29.33;;;16.15;;
27412;SDS011;14871;52.702;5.230;2023-08-12T05:16:27;25.77;;;16.38;;
27412;SDS011;14871;52.702;5.230;2023-08-12T05:18:54;26.73;;;16.48;;
27412;SDS011;14871;52.702;5.230;2023-08-12T05:21:19;29.10;;;16.55;;
27412;SDS011;14871;52.702;5.230;2023-08-12T05:23:45;28.23;;;16.90;;
27412;SDS011;14871;52.702;5.230;2023-08-12T05:26:11;27.05;;;16.75;;
27412;SDS011;14871;52.702;5.230;2023-08-12T05:28:36;26.88;;;16.33;;
27412;SDS011;14871;52.702;5.230;2023-08-12T05:31:02;28.05;;;16.63;;
27412;SDS011;14871;52.702;5.230;2023-08-12T05:33:28;27.65;;;17.13;;
27412;SDS011;14871;52.702;5.230;2023-08-12T05:35:53;26.30;;;16.00;;
27412;SDS011;14871;52.702;5.230;2023-08-12T05:38:19;27.50;;;16.55;;
27412;SDS011;14871;52.702;5.230;2023-08-12T05:40:45;28.95;;;17.40;;
27412;SDS011;14871;52.702;5.230;2023-08-12T05:43:10;29.55;;;16.52;;
27412;SDS011;14871;52.702;5.230;2023-08-12T05:45:36;30.30;;;17.30;;
27412;SDS011;14871;52.702;5.230;2023-08-12T05:48:01;28.50;;;17.77;;
27412;SDS011;14871;52.702;5.230;2023-08-12T05:50:27;26.65;;;17.95;;
27412;SDS011;14871;52.702;5.230;2023-08-12T05:52:53;27.00;;;18.58;;
27412;SDS011;14871;52.702;5.230;2023-08-12T05:55:18;27.73;;;17.17;;
27412;SDS011;14871;52.702;5.230;2023-08-12T05:57:44;25.10;;;16.88;;
27412;SDS011;14871;52.702;5.230;2023-08-12T06:00:10;27.35;;;17.10;;
27412;SDS011;14871;52.702;5.230;2023-08-12T06:02:36;26.08;;;17.15;;
27412;SDS011;14871;52.702;5.230;2023-08-12T06:05:02;24.83;;;16.23;;
27412;SDS011;14871;52.702;5.230;2023-08-12T06:07:27;25.27;;;16.73;;
27412;SDS011;14871;52.702;5.230;2023-08-12T06:09:53;23.15;;;15.75;;
27412;SDS011;14871;52.702;5.230;2023-08-12T06:12:18;24.35;;;17.02;;
27412;SDS011;14871;52.702;5.230;2023-08-12T06:14:44;23.35;;;16.10;;
27412;SDS011;14871;52.702;5.230;2023-08-12T06:17:09;27.50;;;16.85;;
27412;SDS011;14871;52.702;5.230;2023-08-12T06:19:35;25.58;;;16.63;;
27412;SDS011;14871;52.702;5.230;2023-08-12T06:22:01;25.33;;;15.90;;
27412;SDS011;14871;52.702;5.230;2023-08-12T06:24:26;24.45;;;15.85;;
27412;SDS011;14871;52.702;5.230;2023-08-12T06:26:52;26.48;;;16.40;;
27412;SDS011;14871;52.702;5.230;2023-08-12T06:29:17;23.98;;;17.50;;
27412;SDS011;14871;52.702;5.230;2023-08-12T06:31:43;25.75;;;16.10;;
27412;SDS011;14871;52.702;5.230;2023-08-12T06:34:09;27.70;;;16.92;;
27412;SDS011;14871;52.702;5.230;2023-08-12T06:36:34;24.63;;;16.30;;
27412;SDS011;14871;52.702;5.230;2023-08-12T06:39:00;24.48;;;16.73;;
27412;SDS011;14871;52.702;5.230;2023-08-12T06:41:25;29.05;;;16.98;;
27412;SDS011;14871;52.702;5.230;2023-08-12T06:43:51;29.02;;;16.85;;
27412;SDS011;14871;52.702;5.230;2023-08-12T06:46:16;25.92;;;16.15;;
27412;SDS011;14871;52.702;5.230;2023-08-12T06:48:42;27.75;;;16.75;;
27412;SDS011;14871;52.702;5.230;2023-08-12T06:51:08;26.70;;;17.08;;
27412;SDS011;14871;52.702;5.230;2023-08-12T06:53:36;29.60;;;17.63;;
27412;SDS011;14871;52.702;5.230;2023-08-12T06:56:03;32.42;;;19.13;;
27412;SDS011;14871;52.702;5.230;2023-08-12T06:58:29;29.05;;;17.92;;
27412;SDS011;14871;52.702;5.230;2023-08-12T07:00:55;27.83;;;17.63;;
27412;SDS011;14871;52.702;5.230;2023-08-12T07:03:21;32.55;;;18.92;;
27412;SDS011;14871;52.702;5.230;2023-08-12T07:05:47;28.85;;;18.67;;
27412;SDS011;14871;52.702;5.230;2023-08-12T07:08:13;26.75;;;17.92;;
27412;SDS011;14871;52.702;5.230;2023-08-12T07:10:43;29.88;;;18.42;;
27412;SDS011;14871;52.702;5.230;2023-08-12T07:13:08;31.75;;;19.58;;
27412;SDS011;14871;52.702;5.230;2023-08-12T07:15:34;29.88;;;18.38;;
27412;SDS011;14871;52.702;5.230;2023-08-12T07:18:00;30.98;;;18.83;;
27412;SDS011;14871;52.702;5.230;2023-08-12T07:20:25;31.10;;;20.13;;
27412;SDS011;14871;52.702;5.230;2023-08-12T07:22:51;27.77;;;19.75;;
27412;SDS011;14871;52.702;5.230;2023-08-12T07:25:16;31.67;;;19.95;;
27412;SDS011;14871;52.702;5.230;2023-08-12T07:27:42;33.25;;;20.02;;
27412;SDS011;14871;52.702;5.230;2023-08-12T07:30:08;28.77;;;20.67;;
27412;SDS011;14871;52.702;5.230;2023-08-12T07:32:36;25.75;;;19.30;;
27412;SDS011;14871;52.702;5.230;2023-08-12T07:35:02;30.67;;;20.83;;
27412;SDS011;14871;52.702;5.230;2023-08-12T07:37:28;27.95;;;19.88;;
27412;SDS011;14871;52.702;5.230;2023-08-12T07:39:54;30.25;;;19.55;;
27412;SDS011;14871;52.702;5.230;2023-08-12T07:42:19;29.90;;;19.90;;
27412;SDS011;14871;52.702;5.230;2023-08-12T07:44:45;29.10;;;20.23;;
27412;SDS011;14871;52.702;5.230;2023-08-12T07:47:11;27.20;;;20.42;;
27412;SDS011;14871;52.702;5.230;2023-08-12T07:49:37;27.48;;;18.77;;
27412;SDS011;14871;52.702;5.230;2023-08-12T07:52:03;29.02;;;20.00;;
27412;SDS011;14871;52.702;5.230;2023-08-12T07:54:28;29.15;;;20.85;;
27412;SDS011;14871;52.702;5.230;2023-08-12T07:56:54;30.27;;;21.38;;
27412;SDS011;14871;52.702;5.230;2023-08-12T07:59:20;31.75;;;21.52;;
27412;SDS011;14871;52.702;5.230;2023-08-12T08:01:46;31.83;;;22.30;;
27412;SDS011;14871;52.702;5.230;2023-08-12T08:04:12;32.30;;;22.45;;
27412;SDS011;14871;52.702;5.230;2023-08-12T08:06:37;33.90;;;21.77;;
27412;SDS011;14871;52.702;5.230;2023-08-12T08:09:03;32.10;;;22.70;;
27412;SDS011;14871;52.702;5.230;2023-08-12T08:11:29;35.55;;;22.30;;
27412;SDS011;14871;52.702;5.230;2023-08-12T08:13:57;35.90;;;23.33;;
27412;SDS011;14871;52.702;5.230;2023-08-12T08:16:23;39.33;;;23.90;;
27412;SDS011;14871;52.702;5.230;2023-08-12T08:18:49;34.22;;;23.20;;
27412;SDS011;14871;52.702;5.230;2023-08-12T08:21:15;33.78;;;21.90;;
27412;SDS011;14871;52.702;5.230;2023-08-12T08:23:41;35.50;;;24.00;;
27412;SDS011;14871;52.702;5.230;2023-08-12T08:26:07;38.22;;;23.52;;
27412;SDS011;14871;52.702;5.230;2023-08-12T08:28:33;33.22;;;22.67;;
27412;SDS011;14871;52.702;5.230;2023-08-12T08:30:59;35.47;;;22.23;;
27412;SDS011;14871;52.702;5.230;2023-08-12T08:33:25;33.03;;;23.38;;
27412;SDS011;14871;52.702;5.230;2023-08-12T08:35:51;35.10;;;24.10;;
27412;SDS011;14871;52.702;5.230;2023-08-12T08:38:18;39.10;;;24.38;;
27412;SDS011;14871;52.702;5.230;2023-08-12T08:40:44;13.85;;;6.78;;
27412;SDS011;14871;52.702;5.230;2023-08-12T08:43:10;6.93;;;3.20;;
27412;SDS011;14871;52.702;5.230;2023-08-12T08:45:40;7.75;;;3.25;;
27412;SDS011;14871;52.702;5.230;2023-08-12T08:48:08;8.85;;;2.53;;
27412;SDS011;14871;52.702;5.230;2023-08-12T08:50:35;6.10;;;2.88;;
27412;SDS011;14871;52.702;5.230;2023-08-12T08:53:02;7.78;;;2.13;;
27412;SDS011;14871;52.702;5.230;2023-08-12T08:55:31;6.22;;;2.42;;
27412;SDS011;14871;52.702;5.230;2023-08-12T08:57:57;6.50;;;1.83;;
27412;SDS011;14871;52.702;5.230;2023-08-12T09:00:23;4.43;;;1.98;;
27412;SDS011;14871;52.702;5.230;2023-08-12T09:02:50;5.93;;;1.90;;
27412;SDS011;14871;52.702;5.230;2023-08-12T09:05:17;5.82;;;2.28;;
27412;SDS011;14871;52.702;5.230;2023-08-12T09:07:45;5.63;;;1.80;;
27412;SDS011;14871;52.702;5.230;2023-08-12T09:10:12;6.90;;;1.80;;
27412;SDS011;14871;52.702;5.230;2023-08-12T09:12:38;6.50;;;2.08;;
27412;SDS011;14871;52.702;5.230;2023-08-12T09:15:04;5.40;;;1.90;;
27412;SDS011;14871;52.702;5.230;2023-08-12T09:17:31;10.60;;;2.28;;
27412;SDS011;14871;52.702;5.230;2023-08-12T09:19:58;6.90;;;1.80;;
27412;SDS011;14871;52.702;5.230;2023-08-12T09:22:24;6.38;;;2.13;;
27412;SDS011;14871;52.702;5.230;2023-08-12T09:24:55;9.25;;;2.50;;
27412;SDS011;14871;52.702;5.230;2023-08-12T09:27:23;5.50;;;2.30;;
27412;SDS011;14871;52.702;5.230;2023-08-12T09:29:49;4.82;;;2.13;;
27412;SDS011;14871;52.702;5.230;2023-08-12T09:32:20;7.60;;;3.10;;
27412;SDS011;14871;52.702;5.230;2023-08-12T09:34:46;5.97;;;2.25;;
27412;SDS011;14871;52.702;5.230;2023-08-12T09:37:13;5.95;;;1.75;;
27412;SDS011;14871;52.702;5.230;2023-08-12T09:39:39;7.38;;;2.30;;
27412;SDS011;14871;52.702;5.230;2023-08-12T09:42:06;7.93;;;2.17;;
27412;SDS011;14871;52.702;5.230;2023-08-12T09:44:34;6.20;;;2.47;;
27412;SDS011;14871;52.702;5.230;2023-08-12T09:47:00;7.13;;;2.17;;
27412;SDS011;14871;52.702;5.230;2023-08-12T09:49:26;3.53;;;1.90;;
27412;SDS011;14871;52.702;5.230;2023-08-12T09:51:53;6.03;;;2.22;;
27412;SDS011;14871;52.702;5.230;2023-08-12T09:54:18;9.13;;;2.00;;
27412;SDS011;14871;52.702;5.230;2023-08-12T09:56:46;9.63;;;2.50;;
27412;SDS011;14871;52.702;5.230;2023-08-12T09:59:13;4.93;;;2.40;;
27412;SDS011;14871;52.702;5.230;2023-08-12T10:01:47;6.00;;;1.88;;
27412;SDS011;14871;52.702;5.230;2023-08-12T10:04:14;6.82;;;2.05;;
27412;SDS011;14871;52.702;5.230;2023-08-12T10:06:46;7.60;;;2.22;;
27412;SDS011;14871;52.702;5.230;2023-08-12T10:09:12;6.20;;;1.90;;
27412;SDS011;14871;52.702;5.230;2023-08-12T10:11:41;8.98;;;2.30;;
27412;SDS011;14871;52.702;5.230;2023-08-12T10:14:09;6.25;;;2.35;;
27412;SDS011;14871;52.702;5.230;2023-08-12T10:16:35;6.00;;;1.80;;
27412;SDS011;14871;52.702;5.230;2023-08-12T10:19:02;6.88;;;2.20;;
27412;SDS011;14871;52.702;5.230;2023-08-12T10:21:29;6.68;;;2.63;;
27412;SDS011;14871;52.702;5.230;2023-08-12T10:23:56;5.38;;;2.10;;
27412;SDS011;14871;52.702;5.230;2023-08-12T10:26:24;8.10;;;1.98;;
27412;SDS011;14871;52.702;5.230;2023-08-12T10:28:50;6.60;;;1.80;;
27412;SDS011;14871;52.702;5.230;2023-08-12T10:31:16;6.32;;;2.30;;
27412;SDS011;14871;52.702;5.230;2023-08-12T10:33:43;4.40;;;1.98;;
27412;SDS011;14871;52.702;5.230;2023-08-12T10:36:09;5.07;;;1.83;;
27412;SDS011;14871;52.702;5.230;2023-08-12T10:38:35;8.35;;;2.13;;
27412;SDS011;14871;52.702;5.230;2023-08-12T10:44:05;7.85;;;2.03;;
27412;SDS011;14871;52.702;5.230;2023-08-12T10:46:31;8.13;;;2.38;;
27412;SDS011;14871;52.702;5.230;2023-08-12T11:02:16;9.27;;;3.53;;
27412;SDS011;14871;52.702;5.230;2023-08-12T11:04:43;11.57;;;2.97;;
27412;SDS011;14871;52.702;5.230;2023-08-12T11:07:18;6.68;;;2.70;;
27412;SDS011;14871;52.702;5.230;2023-08-12T11:09:45;7.82;;;3.35;;
27412;SDS011;14871;52.702;5.230;2023-08-12T11:12:17;10.95;;;3.40;;
27412;SDS011;14871;52.702;5.230;2023-08-12T11:14:47;9.13;;;3.13;;
27412;SDS011;14871;52.702;5.230;2023-08-12T11:17:14;9.80;;;3.20;;
27412;SDS011;14871;52.702;5.230;2023-08-12T11:19:41;10.05;;;4.80;;
27412;SDS011;14871;52.702;5.230;2023-08-12T11:22:07;8.07;;;3.38;;
27412;SDS011;14871;52.702;5.230;2023-08-12T11:24:33;10.57;;;3.33;;
27412;SDS011;14871;52.702;5.230;2023-08-12T11:27:01;9.30;;;3.47;;
27412;SDS011;14871;52.702;5.230;2023-08-12T11:29:26;13.50;;;5.03;;
27412;SDS011;14871;52.702;5.230;2023-08-12T11:31:52;8.60;;;5.13;;
27412;SDS011;14871;52.702;5.230;2023-08-12T11:34:17;18.67;;;5.55;;
27412;SDS011;14871;52.702;5.230;2023-08-12T11:36:43;10.52;;;3.47;;
27412;SDS011;14871;52.702;5.230;2023-08-12T11:39:09;8.82;;;3.63;;
27412;SDS011;14871;52.702;5.230;2023-08-12T11:41:34;10.48;;;2.22;;
27412;SDS011;14871;52.702;5.230;2023-08-12T11:44:00;14.27;;;5.65;;
27412;SDS011;14871;52.702;5.230;2023-08-12T11:46:25;12.77;;;4.57;;
27412;SDS011;14871;52.702;5.230;2023-08-12T11:48:51;10.48;;;2.83;;
27412;SDS011;14871;52.702;5.230;2023-08-12T11:51:17;9.52;;;2.97;;
27412;SDS011;14871;52.702;5.230;2023-08-12T11:53:42;10.15;;;2.22;;
27412;SDS011;14871;52.702;5.230;2023-08-12T11:56:08;11.63;;;3.08;;
27412;SDS011;14871;52.702;5.230;2023-08-12T11:58:35;10.70;;;2.47;;
27412;SDS011;14871;52.702;5.230;2023-08-12T12:01:01;9.35;;;2.45;;
27412;SDS011;14871;52.702;5.230;2023-08-12T12:03:27;7.35;;;2.20;;
27412;SDS011;14871;52.702;5.230;2023-08-12T12:05:55;12.15;;;2.95;;
27412;SDS011;14871;52.702;5.230;2023-08-12T12:08:21;8.48;;;2.30;;
27412;SDS011;14871;52.702;5.230;2023-08-12T12:10:47;9.57;;;2.05;;
27412;SDS011;14871;52.702;5.230;2023-08-12T12:13:13;7.72;;;2.33;;
27412;SDS011;14871;52.702;5.230;2023-08-12T12:15:42;7.35;;;2.17;;
27412;SDS011;14871;52.702;5.230;2023-08-12T12:18:11;7.03;;;2.40;;
27412;SDS011;14871;52.702;5.230;2023-08-12T12:21:11;9.35;;;2.53;;
27412;SDS011;14871;52.702;5.230;2023-08-12T12:23:30;8.25;;;2.15;;
27412;SDS011;14871;52.702;5.230;2023-08-12T12:25:56;11.00;;;2.47;;
27412;SDS011;14871;52.702;5.230;2023-08-12T12:28:24;7.55;;;2.38;;
27412;SDS011;14871;52.702;5.230;2023-08-12T12:30:49;7.43;;;2.30;;
27412;SDS011;14871;52.702;5.230;2023-08-12T12:33:15;10.48;;;2.17;;
27412;SDS011;14871;52.702;5.230;2023-08-12T12:35:40;10.90;;;2.20;;
27412;SDS011;14871;52.702;5.230;2023-08-12T12:38:06;12.30;;;2.55;;
27412;SDS011;14871;52.702;5.230;2023-08-12T12:40:32;6.28;;;2.03;;
27412;SDS011;14871;52.702;5.230;2023-08-12T12:42:58;8.95;;;2.15;;
27412;SDS011;14871;52.702;5.230;2023-08-12T12:45:24;7.68;;;2.42;;
27412;SDS011;14871;52.702;5.230;2023-08-12T12:47:50;6.13;;;1.92;;
27412;SDS011;14871;52.702;5.230;2023-08-12T12:50:15;10.93;;;2.67;;
27412;SDS011;14871;52.702;5.230;2023-08-12T12:52:42;11.50;;;2.33;;
27412;SDS011;14871;52.702;5.230;2023-08-12T12:55:08;10.85;;;2.70;;
27412;SDS011;14871;52.702;5.230;2023-08-12T12:57:33;9.98;;;2.40;;
27412;SDS011;14871;52.702;5.230;2023-08-12T12:59:59;8.52;;;2.47;;
27412;SDS011;14871;52.702;5.230;2023-08-12T13:02:25;9.00;;;2.45;;
27412;SDS011;14871;52.702;5.230;2023-08-12T13:04:52;8.88;;;2.17;;
27412;SDS011;14871;52.702;5.230;2023-08-12T13:07:17;13.02;;;2.60;;
27412;SDS011;14871;52.702;5.230;2023-08-12T13:09:43;8.85;;;2.15;;
27412;SDS011;14871;52.702;5.230;2023-08-12T13:12:09;10.85;;;2.25;;
27412;SDS011;14871;52.702;5.230;2023-08-12T13:14:34;10.32;;;2.30;;
27412;SDS011;14871;52.702;5.230;2023-08-12T13:17:00;6.13;;;1.90;;
27412;SDS011;14871;52.702;5.230;2023-08-12T13:19:26;10.75;;;2.40;;
27412;SDS011;14871;52.702;5.230;2023-08-12T13:21:52;7.15;;;1.95;;
27412;SDS011;14871;52.702;5.230;2023-08-12T13:24:17;9.20;;;2.35;;
27412;SDS011;14871;52.702;5.230;2023-08-12T13:26:43;7.82;;;1.98;;
27412;SDS011;14871;52.702;5.230;2023-08-12T13:29:08;10.90;;;2.30;;
27412;SDS011;14871;52.702;5.230;2023-08-12T13:31:34;10.43;;;2.38;;
27412;SDS011;14871;52.702;5.230;2023-08-12T13:34:00;12.05;;;2.53;;
27412;SDS011;14871;52.702;5.230;2023-08-12T13:36:25;9.38;;;1.95;;
27412;SDS011;14871;52.702;5.230;2023-08-12T13:38:51;8.25;;;2.10;;
27412;SDS011;14871;52.702;5.230;2023-08-12T13:41:16;9.82;;;2.35;;
27412;SDS011;14871;52.702;5.230;2023-08-12T13:43:42;9.38;;;2.17;;
27412;SDS011;14871;52.702;5.230;2023-08-12T13:46:08;6.00;;;2.63;;
27412;SDS011;14871;52.702;5.230;2023-08-12T13:48:33;9.73;;;3.10;;
27412;SDS011;14871;52.702;5.230;2023-08-12T13:50:59;6.82;;;2.40;;
27412;SDS011;14871;52.702;5.230;2023-08-12T13:53:25;7.22;;;1.80;;
27412;SDS011;14871;52.702;5.230;2023-08-12T13:55:50;9.63;;;1.90;;
27412;SDS011;14871;52.702;5.230;2023-08-12T13:58:16;7.82;;;2.03;;
27412;SDS011;14871;52.702;5.230;2023-08-12T14:00:42;8.70;;;2.25;;
27412;SDS011;14871;52.702;5.230;2023-08-12T14:03:07;8.40;;;1.92;;
27412;SDS011;14871;52.702;5.230;2023-08-12T14:05:33;9.40;;;2.22;;
27412;SDS011;14871;52.702;5.230;2023-08-12T14:07:59;9.48;;;2.85;;
27412;SDS011;14871;52.702;5.230;2023-08-12T14:10:24;9.80;;;2.67;;
27412;SDS011;14871;52.702;5.230;2023-08-12T14:12:50;12.10;;;3.13;;
27412;SDS011;14871;52.702;5.230;2023-08-12T14:15:15;7.32;;;2.60;;
27412;SDS011;14871;52.702;5.230;2023-08-12T14:17:41;11.07;;;3.35;;
27412;SDS011;14871;52.702;5.230;2023-08-12T14:20:07;11.10;;;3.25;;
27412;SDS011;14871;52.702;5.230;2023-08-12T14:22:33;12.23;;;2.78;;
27412;SDS011;14871;52.702;5.230;2023-08-12T14:25:00;10.02;;;2.47;;
27412;SDS011;14871;52.702;5.230;2023-08-12T14:27:26;6.72;;;2.63;;
27412;SDS011;14871;52.702;5.230;2023-08-12T14:29:52;12.13;;;2.72;;
27412;SDS011;14871;52.702;5.230;2023-08-12T14:32:18;13.70;;;3.45;;
27412;SDS011;14871;52.702;5.230;2023-08-12T14:34:44;8.57;;;3.08;;
27412;SDS011;14871;52.702;5.230;2023-08-12T14:37:11;9.13;;;2.83;;
27412;SDS011;14871;52.702;5.230;2023-08-12T14:39:37;12.85;;;3.40;;
27412;SDS011;14871;52.702;5.230;2023-08-12T14:42:03;11.15;;;2.70;;
27412;SDS011;14871;52.702;5.230;2023-08-12T14:44:29;8.80;;;2.42;;
27412;SDS011;14871;52.702;5.230;2023-08-12T14:46:57;11.82;;;3.08;;